sensor_id;sensor_type;location;lat;lon;timestamp;P1;durP1;ratioP1;P2;durP2;ratioP2
20609;SDS011;10463;52.378;9.688;2024-03-08T00:02:06;4.43;;;3.20;;
20609;SDS011;10463;52.378;9.688;2024-03-08T00:04:51;4.43;;;3.43;;
20609;SDS011;10463;52.378;9.688;2024-03-08T00:07:36;4.20;;;3.53;;
20609;SDS011;10463;52.378;9.688;2024-03-08T00:10:20;5.40;;;3.50;;
20609;SDS011;10463;52.378;9.688;2024-03-08T00:13:06;3.77;;;3.00;;
20609;SDS011;10463;52.378;9.688;2024-03-08T00:15:51;4.00;;;3.50;;
20609;SDS011;10463;52.378;9.688;2024-03-08T00:18:36;4.27;;;3.33;;
20609;SDS011;10463;52.378;9.688;2024-03-08T00:21:21;4.10;;;3.40;;
20609;SDS011;10463;52.378;9.688;2024-03-08T00:24:06;4.30;;;3.90;;
20609;SDS011;10463;52.378;9.688;2024-03-08T00:26:50;5.63;;;3.50;;
20609;SDS011;10463;52.378;9.688;2024-03-08T00:29:36;3.80;;;3.40;;
20609;SDS011;10463;52.378;9.688;2024-03-08T00:32:22;3.63;;;3.20;;
20609;SDS011;10463;52.378;9.688;2024-03-08T00:35:11;3.13;;;2.53;;
20609;SDS011;10463;52.378;9.688;2024-03-08T00:37:56;3.50;;;3.07;;
20609;SDS011;10463;52.378;9.688;2024-03-08T00:40:40;3.67;;;2.73;;
20609;SDS011;10463;52.378;9.688;2024-03-08T00:43:25;3.77;;;2.93;;
20609;SDS011;10463;52.378;9.688;2024-03-08T00:46:11;4.00;;;3.13;;
20609;SDS011;10463;52.378;9.688;2024-03-08T00:48:55;3.03;;;2.63;;
20609;SDS011;10463;52.378;9.688;2024-03-08T00:51:40;4.30;;;3.10;;
20609;SDS011;10463;52.378;9.688;2024-03-08T00:54:25;3.70;;;2.90;;
20609;SDS011;10463;52.378;9.688;2024-03-08T00:57:10;5.60;;;3.70;;
20609;SDS011;10463;52.378;9.688;2024-03-08T00:59:54;3.50;;;3.20;;
20609;SDS011;10463;52.378;9.688;2024-03-08T01:02:41;6.00;;;3.47;;
20609;SDS011;10463;52.378;9.688;2024-03-08T01:05:26;3.83;;;3.03;;
20609;SDS011;10463;52.378;9.688;2024-03-08T01:08:11;3.53;;;3.17;;
20609;SDS011;10463;52.378;9.688;2024-03-08T01:10:56;4.10;;;3.60;;
20609;SDS011;10463;52.378;9.688;2024-03-08T01:13:40;3.60;;;3.20;;
20609;SDS011;10463;52.378;9.688;2024-03-08T01:16:25;4.17;;;3.43;;
20609;SDS011;10463;52.378;9.688;2024-03-08T01:19:11;3.50;;;3.00;;
20609;SDS011;10463;52.378;9.688;2024-03-08T01:21:57;3.00;;;2.70;;
20609;SDS011;10463;52.378;9.688;2024-03-08T01:24:42;4.07;;;2.80;;
20609;SDS011;10463;52.378;9.688;2024-03-08T01:27:27;3.87;;;3.27;;
20609;SDS011;10463;52.378;9.688;2024-03-08T01:30:11;3.73;;;3.10;;
20609;SDS011;10463;52.378;9.688;2024-03-08T01:32:56;3.80;;;3.17;;
20609;SDS011;10463;52.378;9.688;2024-03-08T01:35:42;3.53;;;2.80;;
20609;SDS011;10463;52.378;9.688;2024-03-08T01:38:27;3.67;;;3.10;;
20609;SDS011;10463;52.378;9.688;2024-03-08T01:41:11;4.80;;;3.57;;
20609;SDS011;10463;52.378;9.688;2024-03-08T01:43:57;3.30;;;3.00;;
20609;SDS011;10463;52.378;9.688;2024-03-08T01:46:42;3.97;;;3.03;;
20609;SDS011;10463;52.378;9.688;2024-03-08T01:49:28;3.77;;;3.37;;
20609;SDS011;10463;52.378;9.688;2024-03-08T01:52:15;3.10;;;2.80;;
20609;SDS011;10463;52.378;9.688;2024-03-08T01:54:59;3.37;;;2.93;;
20609;SDS011;10463;52.378;9.688;2024-03-08T01:57:47;3.70;;;3.30;;
20609;SDS011;10463;52.378;9.688;2024-03-08T02:00:33;3.73;;;3.30;;
20609;SDS011;10463;52.378;9.688;2024-03-08T02:03:19;3.77;;;3.20;;
20609;SDS011;10463;52.378;9.688;2024-03-08T02:06:04;3.80;;;3.03;;
20609;SDS011;10463;52.378;9.688;2024-03-08T02:08:53;4.33;;;3.13;;
20609;SDS011;10463;52.378;9.688;2024-03-08T02:11:38;3.40;;;3.10;;
20609;SDS011;10463;52.378;9.688;2024-03-08T02:14:25;2.87;;;2.50;;
20609;SDS011;10463;52.378;9.688;2024-03-08T02:17:10;4.10;;;3.43;;
20609;SDS011;10463;52.378;9.688;2024-03-08T02:19:55;3.93;;;3.23;;
20609;SDS011;10463;52.378;9.688;2024-03-08T02:22:41;3.53;;;3.13;;
20609;SDS011;10463;52.378;9.688;2024-03-08T02:25:26;5.10;;;3.40;;
20609;SDS011;10463;52.378;9.688;2024-03-08T02:28:11;3.80;;;2.93;;
20609;SDS011;10463;52.378;9.688;2024-03-08T02:30:56;3.53;;;3.00;;
20609;SDS011;10463;52.378;9.688;2024-03-08T02:33:41;3.73;;;3.13;;
20609;SDS011;10463;52.378;9.688;2024-03-08T02:36:25;3.37;;;2.80;;
20609;SDS011;10463;52.378;9.688;2024-03-08T02:39:11;3.40;;;2.97;;
20609;SDS011;10463;52.378;9.688;2024-03-08T02:41:56;3.73;;;3.07;;
20609;SDS011;10463;52.378;9.688;2024-03-08T02:44:42;3.50;;;3.03;;
20609;SDS011;10463;52.378;9.688;2024-03-08T02:47:28;3.13;;;2.83;;
20609;SDS011;10463;52.378;9.688;2024-03-08T02:50:15;5.03;;;2.87;;
20609;SDS011;10463;52.378;9.688;2024-03-08T02:53:01;3.73;;;3.20;;
20609;SDS011;10463;52.378;9.688;2024-03-08T02:55:49;3.73;;;2.80;;
20609;SDS011;10463;52.378;9.688;2024-03-08T02:58:35;3.80;;;2.77;;
20609;SDS011;10463;52.378;9.688;2024-03-08T03:01:21;3.40;;;3.00;;
20609;SDS011;10463;52.378;9.688;2024-03-08T03:04:07;3.40;;;3.10;;
20609;SDS011;10463;52.378;9.688;2024-03-08T03:06:53;3.77;;;3.03;;
20609;SDS011;10463;52.378;9.688;2024-03-08T03:09:39;3.73;;;3.10;;
20609;SDS011;10463;52.378;9.688;2024-03-08T03:12:26;3.30;;;3.00;;
20609;SDS011;10463;52.378;9.688;2024-03-08T03:15:12;4.00;;;3.00;;
20609;SDS011;10463;52.378;9.688;2024-03-08T03:17:58;3.63;;;3.00;;
20609;SDS011;10463;52.378;9.688;2024-03-08T03:20:45;3.70;;;3.20;;
20609;SDS011;10463;52.378;9.688;2024-03-08T03:23:31;3.37;;;3.07;;
20609;SDS011;10463;52.378;9.688;2024-03-08T03:26:18;4.30;;;3.90;;
20609;SDS011;10463;52.378;9.688;2024-03-08T03:29:06;3.40;;;2.80;;
20609;SDS011;10463;52.378;9.688;2024-03-08T03:31:53;3.37;;;2.70;;
20609;SDS011;10463;52.378;9.688;2024-03-08T03:34:38;3.63;;;2.80;;
20609;SDS011;10463;52.378;9.688;2024-03-08T03:37:24;3.53;;;3.23;;
20609;SDS011;10463;52.378;9.688;2024-03-08T03:40:10;3.60;;;2.77;;
20609;SDS011;10463;52.378;9.688;2024-03-08T03:42:57;4.90;;;2.70;;
20609;SDS011;10463;52.378;9.688;2024-03-08T03:45:44;3.53;;;2.93;;
20609;SDS011;10463;52.378;9.688;2024-03-08T03:48:29;6.70;;;3.80;;
20609;SDS011;10463;52.378;9.688;2024-03-08T03:51:16;3.70;;;3.30;;
20609;SDS011;10463;52.378;9.688;2024-03-08T03:54:01;3.37;;;2.57;;
20609;SDS011;10463;52.378;9.688;2024-03-08T03:56:48;3.73;;;2.70;;
20609;SDS011;10463;52.378;9.688;2024-03-08T03:59:37;3.67;;;3.27;;
20609;SDS011;10463;52.378;9.688;2024-03-08T04:02:24;5.87;;;3.33;;
20609;SDS011;10463;52.378;9.688;2024-03-08T04:05:11;4.50;;;3.40;;
20609;SDS011;10463;52.378;9.688;2024-03-08T04:07:58;4.37;;;3.27;;
20609;SDS011;10463;52.378;9.688;2024-03-08T04:10:44;2.93;;;2.50;;
20609;SDS011;10463;52.378;9.688;2024-03-08T04:13:29;3.50;;;3.00;;
20609;SDS011;10463;52.378;9.688;2024-03-08T04:16:15;2.80;;;2.50;;
20609;SDS011;10463;52.378;9.688;2024-03-08T04:19:02;3.33;;;2.90;;
20609;SDS011;10463;52.378;9.688;2024-03-08T04:21:48;4.73;;;3.63;;
20609;SDS011;10463;52.378;9.688;2024-03-08T04:24:34;3.63;;;3.07;;
20609;SDS011;10463;52.378;9.688;2024-03-08T04:27:19;3.70;;;3.20;;
20609;SDS011;10463;52.378;9.688;2024-03-08T04:30:06;4.33;;;3.20;;
20609;SDS011;10463;52.378;9.688;2024-03-08T04:32:53;3.37;;;2.70;;
20609;SDS011;10463;52.378;9.688;2024-03-08T04:35:40;3.70;;;2.97;;
20609;SDS011;10463;52.378;9.688;2024-03-08T04:38:25;3.10;;;2.70;;
20609;SDS011;10463;52.378;9.688;2024-03-08T04:41:11;3.63;;;3.10;;
20609;SDS011;10463;52.378;9.688;2024-03-08T04:43:57;3.50;;;3.20;;
20609;SDS011;10463;52.378;9.688;2024-03-08T04:46:43;4.63;;;3.57;;
20609;SDS011;10463;52.378;9.688;2024-03-08T04:49:28;3.50;;;3.17;;
20609;SDS011;10463;52.378;9.688;2024-03-08T04:52:16;4.07;;;3.07;;
20609;SDS011;10463;52.378;9.688;2024-03-08T04:55:01;4.70;;;3.87;;
20609;SDS011;10463;52.378;9.688;2024-03-08T04:57:50;4.00;;;3.10;;
20609;SDS011;10463;52.378;9.688;2024-03-08T05:00:35;5.17;;;3.57;;
20609;SDS011;10463;52.378;9.688;2024-03-08T05:03:20;3.97;;;3.47;;
20609;SDS011;10463;52.378;9.688;2024-03-08T05:06:06;4.37;;;3.13;;
20609;SDS011;10463;52.378;9.688;2024-03-08T05:08:53;3.80;;;3.10;;
20609;SDS011;10463;52.378;9.688;2024-03-08T05:11:38;3.80;;;3.30;;
20609;SDS011;10463;52.378;9.688;2024-03-08T05:14:24;3.20;;;2.87;;
20609;SDS011;10463;52.378;9.688;2024-03-08T05:17:09;4.07;;;3.07;;
20609;SDS011;10463;52.378;9.688;2024-03-08T05:19:54;5.13;;;3.40;;
20609;SDS011;10463;52.378;9.688;2024-03-08T05:22:39;3.13;;;2.83;;
20609;SDS011;10463;52.378;9.688;2024-03-08T05:25:28;4.10;;;3.07;;
20609;SDS011;10463;52.378;9.688;2024-03-08T05:28:13;4.20;;;3.47;;
20609;SDS011;10463;52.378;9.688;2024-03-08T05:30:58;4.83;;;3.20;;
20609;SDS011;10463;52.378;9.688;2024-03-08T05:33:44;3.97;;;3.43;;
20609;SDS011;10463;52.378;9.688;2024-03-08T05:36:28;3.93;;;3.00;;
20609;SDS011;10463;52.378;9.688;2024-03-08T05:39:13;3.63;;;3.23;;
20609;SDS011;10463;52.378;9.688;2024-03-08T05:42:01;4.30;;;3.53;;
20609;SDS011;10463;52.378;9.688;2024-03-08T05:44:48;4.50;;;2.90;;
20609;SDS011;10463;52.378;9.688;2024-03-08T05:47:33;4.97;;;3.37;;
20609;SDS011;10463;52.378;9.688;2024-03-08T05:50:18;3.47;;;2.80;;
20609;SDS011;10463;52.378;9.688;2024-03-08T05:53:03;3.40;;;3.00;;
20609;SDS011;10463;52.378;9.688;2024-03-08T05:55:51;4.30;;;3.47;;
20609;SDS011;10463;52.378;9.688;2024-03-08T05:58:38;3.50;;;3.20;;
20609;SDS011;10463;52.378;9.688;2024-03-08T06:01:23;3.10;;;2.77;;
20609;SDS011;10463;52.378;9.688;2024-03-08T06:04:08;4.40;;;3.30;;
20609;SDS011;10463;52.378;9.688;2024-03-08T06:06:55;4.23;;;3.40;;
20609;SDS011;10463;52.378;9.688;2024-03-08T06:09:41;4.40;;;3.37;;
20609;SDS011;10463;52.378;9.688;2024-03-08T06:12:29;3.90;;;3.23;;
20609;SDS011;10463;52.378;9.688;2024-03-08T06:15:19;3.70;;;2.70;;
20609;SDS011;10463;52.378;9.688;2024-03-08T06:18:05;4.30;;;3.50;;
20609;SDS011;10463;52.378;9.688;2024-03-08T06:20:51;4.00;;;3.43;;
20609;SDS011;10463;52.378;9.688;2024-03-08T06:23:37;3.80;;;2.83;;
20609;SDS011;10463;52.378;9.688;2024-03-08T06:26:23;3.57;;;3.17;;
20609;SDS011;10463;52.378;9.688;2024-03-08T06:29:09;4.70;;;3.33;;
20609;SDS011;10463;52.378;9.688;2024-03-08T06:31:56;6.77;;;3.50;;
20609;SDS011;10463;52.378;9.688;2024-03-08T06:34:42;3.67;;;3.37;;
20609;SDS011;10463;52.378;9.688;2024-03-08T06:37:28;4.07;;;3.10;;
20609;SDS011;10463;52.378;9.688;2024-03-08T06:40:13;4.43;;;3.73;;
20609;SDS011;10463;52.378;9.688;2024-03-08T06:42:59;4.73;;;4.30;;
20609;SDS011;10463;52.378;9.688;2024-03-08T06:45:45;4.73;;;3.60;;
20609;SDS011;10463;52.378;9.688;2024-03-08T06:48:34;4.37;;;3.33;;
20609;SDS011;10463;52.378;9.688;2024-03-08T06:51:21;3.70;;;3.40;;
20609;SDS011;10463;52.378;9.688;2024-03-08T06:54:07;3.80;;;3.30;;
20609;SDS011;10463;52.378;9.688;2024-03-08T06:56:53;6.20;;;4.10;;
20609;SDS011;10463;52.378;9.688;2024-03-08T06:59:40;5.87;;;3.40;;
20609;SDS011;10463;52.378;9.688;2024-03-08T07:02:25;4.73;;;4.17;;
20609;SDS011;10463;52.378;9.688;2024-03-08T07:05:12;4.40;;;3.13;;
20609;SDS011;10463;52.378;9.688;2024-03-08T07:07:57;5.30;;;4.23;;
20609;SDS011;10463;52.378;9.688;2024-03-08T07:10:42;5.90;;;4.50;;
20609;SDS011;10463;52.378;9.688;2024-03-08T07:13:29;5.90;;;4.50;;
20609;SDS011;10463;52.378;9.688;2024-03-08T07:16:15;6.23;;;5.33;;
20609;SDS011;10463;52.378;9.688;2024-03-08T07:19:01;6.73;;;5.73;;
20609;SDS011;10463;52.378;9.688;2024-03-08T07:21:49;5.73;;;5.13;;
20609;SDS011;10463;52.378;9.688;2024-03-08T07:24:35;5.67;;;4.97;;
20609;SDS011;10463;52.378;9.688;2024-03-08T07:27:22;6.67;;;5.87;;
20609;SDS011;10463;52.378;9.688;2024-03-08T07:30:09;7.80;;;5.70;;
20609;SDS011;10463;52.378;9.688;2024-03-08T07:32:56;9.33;;;6.60;;
20609;SDS011;10463;52.378;9.688;2024-03-08T07:35:41;7.23;;;5.97;;
20609;SDS011;10463;52.378;9.688;2024-03-08T07:38:30;6.90;;;6.17;;
20609;SDS011;10463;52.378;9.688;2024-03-08T07:41:15;7.50;;;6.10;;
20609;SDS011;10463;52.378;9.688;2024-03-08T07:43:42;7.17;;;6.20;;
20609;SDS011;10463;52.378;9.688;2024-03-08T07:46:28;9.43;;;7.50;;
20609;SDS011;10463;52.378;9.688;2024-03-08T07:49:13;9.50;;;8.47;;
20609;SDS011;10463;52.378;9.688;2024-03-08T07:51:59;10.13;;;8.13;;
20609;SDS011;10463;52.378;9.688;2024-03-08T07:54:47;10.20;;;8.07;;
20609;SDS011;10463;52.378;9.688;2024-03-08T07:57:33;9.60;;;8.40;;
20609;SDS011;10463;52.378;9.688;2024-03-08T08:00:19;11.10;;;8.60;;
20609;SDS011;10463;52.378;9.688;2024-03-08T08:03:05;9.27;;;8.20;;
20609;SDS011;10463;52.378;9.688;2024-03-08T08:05:52;11.80;;;9.20;;
20609;SDS011;10463;52.378;9.688;2024-03-08T08:08:37;8.80;;;7.90;;
20609;SDS011;10463;52.378;9.688;2024-03-08T08:11:25;10.27;;;9.10;;
20609;SDS011;10463;52.378;9.688;2024-03-08T08:14:11;10.27;;;8.27;;
20609;SDS011;10463;52.378;9.688;2024-03-08T08:16:56;10.70;;;9.37;;
20609;SDS011;10463;52.378;9.688;2024-03-08T08:19:41;15.20;;;10.17;;
20609;SDS011;10463;52.378;9.688;2024-03-08T08:22:25;13.50;;;10.10;;
20609;SDS011;10463;52.378;9.688;2024-03-08T08:25:11;12.13;;;9.70;;
20609;SDS011;10463;52.378;9.688;2024-03-08T08:28:00;12.07;;;9.77;;
20609;SDS011;10463;52.378;9.688;2024-03-08T08:30:47;12.23;;;10.93;;
20609;SDS011;10463;52.378;9.688;2024-03-08T08:33:35;11.23;;;9.93;;
20609;SDS011;10463;52.378;9.688;2024-03-08T08:36:20;12.53;;;10.53;;
20609;SDS011;10463;52.378;9.688;2024-03-08T08:39:05;13.30;;;11.83;;
20609;SDS011;10463;52.378;9.688;2024-03-08T08:41:56;11.80;;;10.20;;
20609;SDS011;10463;52.378;9.688;2024-03-08T08:44:43;10.90;;;9.77;;
20609;SDS011;10463;52.378;9.688;2024-03-08T08:47:27;11.83;;;10.63;;
20609;SDS011;10463;52.378;9.688;2024-03-08T08:50:12;12.20;;;10.40;;
20609;SDS011;10463;52.378;9.688;2024-03-08T08:52:57;12.87;;;11.03;;
20609;SDS011;10463;52.378;9.688;2024-03-08T08:55:42;12.63;;;10.10;;
20609;SDS011;10463;52.378;9.688;2024-03-08T08:58:26;12.77;;;11.47;;
20609;SDS011;10463;52.378;9.688;2024-03-08T09:01:12;13.50;;;11.30;;
20609;SDS011;10463;52.378;9.688;2024-03-08T09:03:57;12.50;;;10.33;;
20609;SDS011;10463;52.378;9.688;2024-03-08T09:06:42;12.70;;;10.93;;
20609;SDS011;10463;52.378;9.688;2024-03-08T09:09:28;14.70;;;10.93;;
20609;SDS011;10463;52.378;9.688;2024-03-08T09:12:13;11.67;;;10.23;;
20609;SDS011;10463;52.378;9.688;2024-03-08T09:14:58;13.07;;;10.37;;
20609;SDS011;10463;52.378;9.688;2024-03-08T09:17:45;12.13;;;10.60;;
20609;SDS011;10463;52.378;9.688;2024-03-08T09:20:29;12.73;;;11.03;;
20609;SDS011;10463;52.378;9.688;2024-03-08T09:23:15;12.10;;;10.40;;
20609;SDS011;10463;52.378;9.688;2024-03-08T09:26:00;12.47;;;11.17;;
20609;SDS011;10463;52.378;9.688;2024-03-08T09:28:46;12.43;;;11.13;;
20609;SDS011;10463;52.378;9.688;2024-03-08T09:31:31;12.70;;;10.97;;
20609;SDS011;10463;52.378;9.688;2024-03-08T09:34:17;11.10;;;9.90;;
20609;SDS011;10463;52.378;9.688;2024-03-08T09:37:03;12.73;;;11.40;;
20609;SDS011;10463;52.378;9.688;2024-03-08T09:39:48;10.90;;;9.80;;
20609;SDS011;10463;52.378;9.688;2024-03-08T09:42:33;12.90;;;11.10;;
20609;SDS011;10463;52.378;9.688;2024-03-08T09:45:21;12.57;;;11.27;;
20609;SDS011;10463;52.378;9.688;2024-03-08T09:48:07;12.73;;;11.33;;
20609;SDS011;10463;52.378;9.688;2024-03-08T09:50:59;13.00;;;11.70;;
20609;SDS011;10463;52.378;9.688;2024-03-08T09:53:44;12.33;;;11.03;;
20609;SDS011;10463;52.378;9.688;2024-03-08T09:56:31;12.90;;;10.83;;
20609;SDS011;10463;52.378;9.688;2024-03-08T09:59:19;13.20;;;11.73;;
20609;SDS011;10463;52.378;9.688;2024-03-08T10:02:09;14.67;;;12.27;;
20609;SDS011;10463;52.378;9.688;2024-03-08T10:04:58;15.13;;;13.70;;
20609;SDS011;10463;52.378;9.688;2024-03-08T10:07:45;12.83;;;11.53;;
20609;SDS011;10463;52.378;9.688;2024-03-08T10:10:30;12.00;;;10.80;;
20609;SDS011;10463;52.378;9.688;2024-03-08T10:13:15;11.90;;;10.70;;
20609;SDS011;10463;52.378;9.688;2024-03-08T10:16:00;13.73;;;12.30;;
20609;SDS011;10463;52.378;9.688;2024-03-08T10:18:45;14.63;;;11.83;;
20609;SDS011;10463;52.378;9.688;2024-03-08T10:21:31;13.67;;;11.57;;
20609;SDS011;10463;52.378;9.688;2024-03-08T10:24:18;10.73;;;9.63;;
20609;SDS011;10463;52.378;9.688;2024-03-08T10:27:03;13.17;;;11.13;;
20609;SDS011;10463;52.378;9.688;2024-03-08T10:29:48;12.60;;;11.30;;
20609;SDS011;10463;52.378;9.688;2024-03-08T10:32:35;12.00;;;10.63;;
20609;SDS011;10463;52.378;9.688;2024-03-08T10:35:20;13.10;;;11.80;;
20609;SDS011;10463;52.378;9.688;2024-03-08T10:38:05;11.70;;;10.40;;
20609;SDS011;10463;52.378;9.688;2024-03-08T10:40:56;10.90;;;9.80;;
20609;SDS011;10463;52.378;9.688;2024-03-08T10:43:50;13.30;;;11.90;;
20609;SDS011;10463;52.378;9.688;2024-03-08T10:46:52;13.27;;;11.87;;
20609;SDS011;10463;52.378;9.688;2024-03-08T10:49:51;13.77;;;11.47;;
20609;SDS011;10463;52.378;9.688;2024-03-08T10:52:49;12.30;;;11.00;;
20609;SDS011;10463;52.378;9.688;2024-03-08T10:55:34;12.67;;;10.50;;
20609;SDS011;10463;52.378;9.688;2024-03-08T10:58:27;14.30;;;12.67;;
20609;SDS011;10463;52.378;9.688;2024-03-08T11:01:12;13.20;;;11.87;;
20609;SDS011;10463;52.378;9.688;2024-03-08T11:03:57;13.87;;;12.40;;
20609;SDS011;10463;52.378;9.688;2024-03-08T11:06:42;13.50;;;12.07;;
20609;SDS011;10463;52.378;9.688;2024-03-08T11:09:30;13.13;;;11.77;;
20609;SDS011;10463;52.378;9.688;2024-03-08T11:12:23;12.77;;;11.47;;
20609;SDS011;10463;52.378;9.688;2024-03-08T11:15:20;16.20;;;11.50;;
20609;SDS011;10463;52.378;9.688;2024-03-08T11:18:05;13.50;;;11.83;;
20609;SDS011;10463;52.378;9.688;2024-03-08T11:20:54;13.20;;;11.87;;
20609;SDS011;10463;52.378;9.688;2024-03-08T11:23:39;12.77;;;11.47;;
20609;SDS011;10463;52.378;9.688;2024-03-08T11:26:24;13.43;;;12.03;;
20609;SDS011;10463;52.378;9.688;2024-03-08T11:29:33;13.27;;;11.83;;
20609;SDS011;10463;52.378;9.688;2024-03-08T11:32:27;14.00;;;12.60;;
20609;SDS011;10463;52.378;9.688;2024-03-08T11:35:18;13.63;;;11.90;;
20609;SDS011;10463;52.378;9.688;2024-03-08T11:38:03;13.30;;;11.80;;
20609;SDS011;10463;52.378;9.688;2024-03-08T11:40:50;13.87;;;11.87;;
20609;SDS011;10463;52.378;9.688;2024-03-08T11:43:34;12.10;;;10.80;;
20609;SDS011;10463;52.378;9.688;2024-03-08T11:46:19;13.70;;;11.97;;
20609;SDS011;10463;52.378;9.688;2024-03-08T11:49:06;11.50;;;10.30;;
20609;SDS011;10463;52.378;9.688;2024-03-08T11:51:52;13.17;;;11.40;;
20609;SDS011;10463;52.378;9.688;2024-03-08T11:54:40;11.63;;;10.43;;
20609;SDS011;10463;52.378;9.688;2024-03-08T11:57:25;11.63;;;10.43;;
20609;SDS011;10463;52.378;9.688;2024-03-08T12:00:15;11.93;;;10.70;;
20609;SDS011;10463;52.378;9.688;2024-03-08T12:03:10;10.83;;;9.73;;
20609;SDS011;10463;52.378;9.688;2024-03-08T12:05:58;11.20;;;10.10;;
20609;SDS011;10463;52.378;9.688;2024-03-08T12:08:43;11.20;;;10.10;;
20609;SDS011;10463;52.378;9.688;2024-03-08T12:11:33;10.90;;;9.70;;
20609;SDS011;10463;52.378;9.688;2024-03-08T12:14:18;9.53;;;8.53;;
20609;SDS011;10463;52.378;9.688;2024-03-08T12:17:04;9.60;;;8.63;;
20609;SDS011;10463;52.378;9.688;2024-03-08T12:19:49;10.50;;;9.27;;
20609;SDS011;10463;52.378;9.688;2024-03-08T12:22:35;10.43;;;9.43;;
20609;SDS011;10463;52.378;9.688;2024-03-08T12:25:30;11.20;;;10.07;;
20609;SDS011;10463;52.378;9.688;2024-03-08T12:28:16;10.90;;;9.80;;
20609;SDS011;10463;52.378;9.688;2024-03-08T12:31:03;10.13;;;8.83;;
20609;SDS011;10463;52.378;9.688;2024-03-08T12:33:54;10.73;;;9.63;;
20609;SDS011;10463;52.378;9.688;2024-03-08T12:36:46;9.17;;;8.07;;
20609;SDS011;10463;52.378;9.688;2024-03-08T12:39:33;9.83;;;8.20;;
20609;SDS011;10463;52.378;9.688;2024-03-08T12:42:18;9.83;;;8.80;;
20609;SDS011;10463;52.378;9.688;2024-03-08T12:45:04;8.53;;;7.73;;
20609;SDS011;10463;52.378;9.688;2024-03-08T12:47:50;10.33;;;9.30;;
20609;SDS011;10463;52.378;9.688;2024-03-08T12:50:35;10.10;;;9.10;;
20609;SDS011;10463;52.378;9.688;2024-03-08T12:53:19;10.53;;;8.63;;
20609;SDS011;10463;52.378;9.688;2024-03-08T12:56:06;9.70;;;8.80;;
20609;SDS011;10463;52.378;9.688;2024-03-08T12:58:55;7.90;;;7.07;;
20609;SDS011;10463;52.378;9.688;2024-03-08T13:01:40;9.37;;;7.97;;
20609;SDS011;10463;52.378;9.688;2024-03-08T13:04:25;9.40;;;8.40;;
20609;SDS011;10463;52.378;9.688;2024-03-08T13:07:09;9.10;;;7.80;;
20609;SDS011;10463;52.378;9.688;2024-03-08T13:09:54;8.10;;;7.30;;
20609;SDS011;10463;52.378;9.688;2024-03-08T13:12:42;7.53;;;6.73;;
20609;SDS011;10463;52.378;9.688;2024-03-08T13:15:27;10.10;;;8.80;;
20609;SDS011;10463;52.378;9.688;2024-03-08T13:18:13;8.20;;;7.40;;
20609;SDS011;10463;52.378;9.688;2024-03-08T13:21:00;10.27;;;7.53;;
20609;SDS011;10463;52.378;9.688;2024-03-08T13:23:50;8.93;;;8.03;;
20609;SDS011;10463;52.378;9.688;2024-03-08T13:26:40;8.33;;;7.30;;
20609;SDS011;10463;52.378;9.688;2024-03-08T13:29:28;8.13;;;7.30;;
20609;SDS011;10463;52.378;9.688;2024-03-08T13:32:14;7.33;;;6.60;;
20609;SDS011;10463;52.378;9.688;2024-03-08T13:34:59;8.00;;;7.20;;
20609;SDS011;10463;52.378;9.688;2024-03-08T13:37:43;8.57;;;7.53;;
20609;SDS011;10463;52.378;9.688;2024-03-08T13:40:28;8.27;;;6.70;;
20609;SDS011;10463;52.378;9.688;2024-03-08T13:43:13;7.30;;;6.53;;
20609;SDS011;10463;52.378;9.688;2024-03-08T13:45:59;8.00;;;7.20;;
20609;SDS011;10463;52.378;9.688;2024-03-08T13:48:43;9.40;;;7.27;;
20609;SDS011;10463;52.378;9.688;2024-03-08T13:51:28;8.10;;;7.30;;
20609;SDS011;10463;52.378;9.688;2024-03-08T13:54:14;7.60;;;6.90;;
20609;SDS011;10463;52.378;9.688;2024-03-08T13:57:00;7.10;;;6.03;;
20609;SDS011;10463;52.378;9.688;2024-03-08T13:59:47;6.37;;;5.33;;
20609;SDS011;10463;52.378;9.688;2024-03-08T14:02:36;9.93;;;7.10;;
20609;SDS011;10463;52.378;9.688;2024-03-08T14:05:21;6.10;;;5.50;;
20609;SDS011;10463;52.378;9.688;2024-03-08T14:08:06;6.17;;;5.57;;
20609;SDS011;10463;52.378;9.688;2024-03-08T14:10:51;7.70;;;6.90;;
20609;SDS011;10463;52.378;9.688;2024-03-08T14:13:41;6.73;;;6.07;;
20609;SDS011;10463;52.378;9.688;2024-03-08T14:16:29;6.10;;;5.30;;
20609;SDS011;10463;52.378;9.688;2024-03-08T14:19:15;7.10;;;5.70;;
20609;SDS011;10463;52.378;9.688;2024-03-08T14:22:00;6.73;;;5.37;;
20609;SDS011;10463;52.378;9.688;2024-03-08T14:24:48;6.00;;;5.40;;
20609;SDS011;10463;52.378;9.688;2024-03-08T14:27:33;5.70;;;5.03;;
20609;SDS011;10463;52.378;9.688;2024-03-08T14:30:18;6.07;;;5.10;;
20609;SDS011;10463;52.378;9.688;2024-03-08T14:33:16;6.60;;;5.37;;
20609;SDS011;10463;52.378;9.688;2024-03-08T14:36:02;5.83;;;4.70;;
20609;SDS011;10463;52.378;9.688;2024-03-08T14:38:49;5.73;;;5.23;;
20609;SDS011;10463;52.378;9.688;2024-03-08T14:41:33;5.77;;;5.10;;
20609;SDS011;10463;52.378;9.688;2024-03-08T14:44:18;5.77;;;5.17;;
20609;SDS011;10463;52.378;9.688;2024-03-08T14:47:03;5.20;;;4.70;;
20609;SDS011;10463;52.378;9.688;2024-03-08T14:49:49;6.97;;;6.10;;
20609;SDS011;10463;52.378;9.688;2024-03-08T14:52:36;5.97;;;5.43;;
20609;SDS011;10463;52.378;9.688;2024-03-08T14:55:23;5.57;;;4.80;;
20609;SDS011;10463;52.378;9.688;2024-03-08T14:58:09;5.77;;;5.20;;
20609;SDS011;10463;52.378;9.688;2024-03-08T15:00:55;5.80;;;5.20;;
20609;SDS011;10463;52.378;9.688;2024-03-08T15:03:44;6.63;;;5.23;;
20609;SDS011;10463;52.378;9.688;2024-03-08T15:06:29;5.77;;;4.70;;
20609;SDS011;10463;52.378;9.688;2024-03-08T15:09:16;5.77;;;4.87;;
20609;SDS011;10463;52.378;9.688;2024-03-08T15:12:02;5.83;;;5.23;;
20609;SDS011;10463;52.378;9.688;2024-03-08T15:14:48;6.27;;;5.67;;
20609;SDS011;10463;52.378;9.688;2024-03-08T15:17:35;7.27;;;6.57;;
20609;SDS011;10463;52.378;9.688;2024-03-08T15:20:20;6.13;;;5.53;;
20609;SDS011;10463;52.378;9.688;2024-03-08T15:23:08;6.93;;;6.00;;
20609;SDS011;10463;52.378;9.688;2024-03-08T15:25:54;7.17;;;6.33;;
20609;SDS011;10463;52.378;9.688;2024-03-08T15:28:39;6.40;;;5.80;;
20609;SDS011;10463;52.378;9.688;2024-03-08T15:31:24;6.83;;;6.13;;
20609;SDS011;10463;52.378;9.688;2024-03-08T15:34:09;5.37;;;4.87;;
20609;SDS011;10463;52.378;9.688;2024-03-08T15:36:55;8.83;;;6.57;;
20609;SDS011;10463;52.378;9.688;2024-03-08T15:39:45;7.53;;;6.00;;
20609;SDS011;10463;52.378;9.688;2024-03-08T15:42:31;7.07;;;6.37;;
20609;SDS011;10463;52.378;9.688;2024-03-08T15:45:16;7.37;;;6.53;;
20609;SDS011;10463;52.378;9.688;2024-03-08T15:48:01;6.97;;;5.93;;
20609;SDS011;10463;52.378;9.688;2024-03-08T15:50:49;7.27;;;5.93;;
20609;SDS011;10463;52.378;9.688;2024-03-08T15:53:35;6.90;;;6.20;;
20609;SDS011;10463;52.378;9.688;2024-03-08T15:56:20;9.50;;;7.17;;
20609;SDS011;10463;52.378;9.688;2024-03-08T15:59:07;9.80;;;7.10;;
20609;SDS011;10463;52.378;9.688;2024-03-08T16:01:52;10.00;;;7.87;;
20609;SDS011;10463;52.378;9.688;2024-03-08T16:04:36;7.03;;;6.33;;
20609;SDS011;10463;52.378;9.688;2024-03-08T16:07:21;8.50;;;6.00;;
20609;SDS011;10463;52.378;9.688;2024-03-08T16:10:07;7.40;;;6.40;;
20609;SDS011;10463;52.378;9.688;2024-03-08T16:12:53;6.70;;;5.83;;
20609;SDS011;10463;52.378;9.688;2024-03-08T16:15:55;8.20;;;6.77;;
20609;SDS011;10463;52.378;9.688;2024-03-08T16:18:51;7.80;;;6.00;;
20609;SDS011;10463;52.378;9.688;2024-03-08T16:21:50;6.70;;;5.50;;
20609;SDS011;10463;52.378;9.688;2024-03-08T16:24:36;6.83;;;6.13;;
20609;SDS011;10463;52.378;9.688;2024-03-08T16:27:25;6.70;;;6.00;;
20609;SDS011;10463;52.378;9.688;2024-03-08T16:30:17;7.27;;;6.50;;
20609;SDS011;10463;52.378;9.688;2024-03-08T16:33:16;6.70;;;5.73;;
20609;SDS011;10463;52.378;9.688;2024-03-08T16:36:06;7.70;;;5.87;;